sensor_id;sensor_type;location;lat;lon;timestamp;noise_LAeq;noise_LA_min;noise_LA_max;noise_LA01;noise_LA95
11999;Laerm;40817;51.520;9.954;2023-04-01T00:00:52;43.78;40.23;57.69;;
11999;Laerm;40817;51.520;9.954;2023-04-01T00:03:20;43.11;39.21;58.01;;
11999;Laerm;40817;51.520;9.954;2023-04-01T00:05:48;51.85;40.89;66.98;;
11999;Laerm;40817;51.520;9.954;2023-04-01T00:08:16;43.25;39.92;56.99;;
11999;Laerm;40817;51.520;9.954;2023-04-01T00:10:44;43.18;38.95;56.22;;
11999;Laerm;40817;51.520;9.954;2023-04-01T00:13:12;43.71;40.23;57.24;;
11999;Laerm;40817;51.520;9.954;2023-04-01T00:15:43;43.41;40.13;59.22;;
11999;Laerm;40817;51.520;9.954;2023-04-01T00:18:11;43.91;40.62;60.50;;
11999;Laerm;40817;51.520;9.954;2023-04-01T00:20:44;43.59;40.33;60.95;;
11999;Laerm;40817;51.520;9.954;2023-04-01T00:23:13;43.62;40.33;58.03;;
11999;Laerm;40817;51.520;9.954;2023-04-01T00:25:41;44.50;40.53;65.56;;
11999;Laerm;40817;51.520;9.954;2023-04-01T00:28:09;44.09;40.62;62.43;;
11999;Laerm;40817;51.520;9.954;2023-04-01T00:30:37;45.62;40.33;69.77;;
11999;Laerm;40817;51.520;9.954;2023-04-01T00:33:06;49.65;41.22;74.66;;
11999;Laerm;40817;51.520;9.954;2023-04-01T00:35:33;44.73;39.92;61.82;;
11999;Laerm;40817;51.520;9.954;2023-04-01T00:38:02;44.53;40.13;65.66;;
11999;Laerm;40817;51.520;9.954;2023-04-01T00:40:34;44.45;40.03;59.92;;
11999;Laerm;40817;51.520;9.954;2023-04-01T00:43:03;47.37;41.14;70.35;;
11999;Laerm;40817;51.520;9.954;2023-04-01T00:45:35;45.01;41.38;58.04;;
11999;Laerm;40817;51.520;9.954;2023-04-01T00:48:11;46.68;41.68;66.63;;
11999;Laerm;40817;51.520;9.954;2023-04-01T00:50:48;45.47;41.03;65.40;;
11999;Laerm;40817;51.520;9.954;2023-04-01T00:53:18;44.56;39.21;67.25;;
11999;Laerm;40817;51.520;9.954;2023-04-01T00:55:54;44.77;39.34;67.98;;
11999;Laerm;40817;51.520;9.954;2023-04-01T00:58:25;43.62;39.81;58.14;;
11999;Laerm;40817;51.520;9.954;2023-04-01T01:00:55;43.61;39.81;63.09;;
11999;Laerm;40817;51.520;9.954;2023-04-01T01:03:25;43.27;38.21;57.16;;
11999;Laerm;40817;51.520;9.954;2023-04-01T01:06:19;43.54;40.33;57.18;;
11999;Laerm;40817;51.520;9.954;2023-04-01T01:09:10;43.79;39.70;57.94;;
11999;Laerm;40817;51.520;9.954;2023-04-01T01:11:44;42.98;39.21;57.20;;
11999;Laerm;40817;51.520;9.954;2023-04-01T01:14:38;44.28;39.70;66.92;;
11999;Laerm;40817;51.520;9.954;2023-04-01T01:17:19;44.75;40.03;73.48;;
11999;Laerm;40817;51.520;9.954;2023-04-01T01:20:34;43.55;39.58;62.45;;
11999;Laerm;40817;51.520;9.954;2023-04-01T01:23:49;44.43;39.08;68.90;;
11999;Laerm;40817;51.520;9.954;2023-04-01T01:26:51;43.56;38.67;64.05;;
11999;Laerm;40817;51.520;9.954;2023-04-01T01:30:12;44.82;39.34;64.13;;
11999;Laerm;40817;51.520;9.954;2023-04-01T01:33:11;45.51;40.33;67.07;;
11999;Laerm;40817;51.520;9.954;2023-04-01T01:35:46;46.18;41.14;69.39;;
11999;Laerm;40817;51.520;9.954;2023-04-01T01:38:18;45.45;39.92;66.70;;
11999;Laerm;40817;51.520;9.954;2023-04-01T01:40:51;44.83;40.03;62.59;;
11999;Laerm;40817;51.520;9.954;2023-04-01T01:43:26;45.37;41.30;64.96;;
11999;Laerm;40817;51.520;9.954;2023-04-01T01:46:01;46.12;40.53;70.95;;
11999;Laerm;40817;51.520;9.954;2023-04-01T01:48:33;43.64;39.46;64.16;;
11999;Laerm;40817;51.520;9.954;2023-04-01T01:51:04;43.57;38.52;64.85;;
11999;Laerm;40817;51.520;9.954;2023-04-01T01:53:33;44.93;39.21;74.78;;
11999;Laerm;40817;51.520;9.954;2023-04-01T01:56:00;45.75;40.71;70.29;;
11999;Laerm;40817;51.520;9.954;2023-04-01T01:58:32;44.24;39.58;62.56;;
11999;Laerm;40817;51.520;9.954;2023-04-01T02:01:10;44.02;39.81;65.28;;
11999;Laerm;40817;51.520;9.954;2023-04-01T02:03:40;43.88;39.92;60.36;;
11999;Laerm;40817;51.520;9.954;2023-04-01T02:06:20;44.33;39.81;69.58;;
11999;Laerm;40817;51.520;9.954;2023-04-01T02:08:52;45.58;41.22;69.73;;
11999;Laerm;40817;51.520;9.954;2023-04-01T02:11:28;43.36;39.21;63.99;;
11999;Laerm;40817;51.520;9.954;2023-04-01T02:14:03;43.07;39.58;58.21;;
11999;Laerm;40817;51.520;9.954;2023-04-01T02:16:37;44.97;38.67;68.16;;
11999;Laerm;40817;51.520;9.954;2023-04-01T02:19:07;43.71;39.46;59.10;;
11999;Laerm;40817;51.520;9.954;2023-04-01T02:21:39;43.14;39.70;59.67;;
11999;Laerm;40817;51.520;9.954;2023-04-01T02:24:13;43.17;39.34;66.38;;
11999;Laerm;40817;51.520;9.954;2023-04-01T02:26:42;42.96;39.81;59.85;;
11999;Laerm;40817;51.520;9.954;2023-04-01T02:29:12;44.02;39.21;68.13;;
11999;Laerm;40817;51.520;9.954;2023-04-01T02:31:41;43.04;38.67;62.67;;
11999;Laerm;40817;51.520;9.954;2023-04-01T02:34:09;43.06;38.52;66.61;;
11999;Laerm;40817;51.520;9.954;2023-04-01T02:36:39;42.67;39.21;58.01;;
11999;Laerm;40817;51.520;9.954;2023-04-01T02:39:08;42.69;39.08;58.97;;
11999;Laerm;40817;51.520;9.954;2023-04-01T02:41:40;43.04;38.95;66.36;;
11999;Laerm;40817;51.520;9.954;2023-04-01T02:44:09;42.99;39.21;66.63;;
11999;Laerm;40817;51.520;9.954;2023-04-01T02:46:37;42.92;38.95;55.15;;
11999;Laerm;40817;51.520;9.954;2023-04-01T02:49:05;43.59;39.70;67.83;;
11999;Laerm;40817;51.520;9.954;2023-04-01T02:51:33;45.35;40.03;62.10;;
11999;Laerm;40817;51.520;9.954;2023-04-01T02:54:03;45.56;40.33;65.67;;
11999;Laerm;40817;51.520;9.954;2023-04-01T02:56:31;43.59;40.23;65.54;;
11999;Laerm;40817;51.520;9.954;2023-04-01T02:58:59;43.55;39.46;66.96;;
11999;Laerm;40817;51.520;9.954;2023-04-01T03:01:26;44.33;39.70;67.60;;
11999;Laerm;40817;51.520;9.954;2023-04-01T03:04:13;43.34;38.67;67.49;;
11999;Laerm;40817;51.520;9.954;2023-04-01T03:07:01;43.62;39.81;65.60;;
11999;Laerm;40817;51.520;9.954;2023-04-01T03:09:31;43.55;39.21;67.22;;
11999;Laerm;40817;51.520;9.954;2023-04-01T03:11:58;43.12;39.08;66.59;;
11999;Laerm;40817;51.520;9.954;2023-04-01T03:14:26;43.28;39.81;67.07;;
11999;Laerm;40817;51.520;9.954;2023-04-01T03:16:55;43.47;40.13;57.11;;
11999;Laerm;40817;51.520;9.954;2023-04-01T03:19:23;43.47;39.21;67.56;;
11999;Laerm;40817;51.520;9.954;2023-04-01T03:21:51;43.46;39.08;67.99;;
11999;Laerm;40817;51.520;9.954;2023-04-01T03:24:19;43.20;39.70;67.47;;
11999;Laerm;40817;51.520;9.954;2023-04-01T03:26:48;43.26;39.58;68.59;;
11999;Laerm;40817;51.520;9.954;2023-04-01T03:29:16;43.08;40.03;59.31;;
11999;Laerm;40817;51.520;9.954;2023-04-01T03:31:44;46.32;41.82;67.15;;
11999;Laerm;40817;51.520;9.954;2023-04-01T03:34:11;42.92;40.13;55.48;;
11999;Laerm;40817;51.520;9.954;2023-04-01T03:36:39;43.95;38.81;69.28;;
11999;Laerm;40817;51.520;9.954;2023-04-01T03:39:07;43.34;40.53;56.01;;
11999;Laerm;40817;51.520;9.954;2023-04-01T03:41:36;43.49;40.71;65.81;;
11999;Laerm;40817;51.520;9.954;2023-04-01T03:44:06;44.33;41.22;61.62;;
11999;Laerm;40817;51.520;9.954;2023-04-01T03:46:34;43.83;40.62;65.24;;
11999;Laerm;40817;51.520;9.954;2023-04-01T03:49:05;43.46;39.92;60.06;;
11999;Laerm;40817;51.520;9.954;2023-04-01T03:51:37;45.89;41.30;67.04;;
11999;Laerm;40817;51.520;9.954;2023-04-01T03:54:06;47.53;41.30;68.35;;
11999;Laerm;40817;51.520;9.954;2023-04-01T03:56:33;49.11;42.53;68.38;;
11999;Laerm;40817;51.520;9.954;2023-04-01T03:59:06;46.88;41.61;67.97;;
11999;Laerm;40817;51.520;9.954;2023-04-01T04:01:35;48.52;42.09;70.08;;
11999;Laerm;40817;51.520;9.954;2023-04-01T04:04:03;48.69;42.35;68.51;;
11999;Laerm;40817;51.520;9.954;2023-04-01T04:06:31;48.37;41.82;72.88;;
11999;Laerm;40817;51.520;9.954;2023-04-01T04:09:04;47.80;41.46;71.38;;
11999;Laerm;40817;51.520;9.954;2023-04-01T04:11:34;50.12;41.30;72.79;;
11999;Laerm;40817;51.520;9.954;2023-04-01T04:14:14;50.01;41.38;69.44;;
11999;Laerm;40817;51.520;9.954;2023-04-01T04:16:41;48.23;41.14;70.36;;
11999;Laerm;40817;51.520;9.954;2023-04-01T04:19:09;50.23;40.71;79.39;;
11999;Laerm;40817;51.520;9.954;2023-04-01T04:21:39;45.52;41.46;66.09;;
11999;Laerm;40817;51.520;9.954;2023-04-01T04:24:07;44.52;40.23;67.99;;
11999;Laerm;40817;51.520;9.954;2023-04-01T04:26:36;44.98;40.98;68.76;;
11999;Laerm;40817;51.520;9.954;2023-04-01T04:29:06;48.44;41.11;69.41;;
11999;Laerm;40817;51.520;9.954;2023-04-01T04:31:34;48.04;40.53;70.09;;
11999;Laerm;40817;51.520;9.954;2023-04-01T04:34:02;45.57;40.89;68.59;;
11999;Laerm;40817;51.520;9.954;2023-04-01T04:36:30;46.11;40.53;69.58;;
11999;Laerm;40817;51.520;9.954;2023-04-01T04:38:57;44.30;41.06;67.46;;
11999;Laerm;40817;51.520;9.954;2023-04-01T04:41:28;46.16;40.89;67.15;;
11999;Laerm;40817;51.520;9.954;2023-04-01T04:43:56;46.73;41.53;68.86;;
11999;Laerm;40817;51.520;9.954;2023-04-01T04:46:25;44.97;41.82;68.53;;
11999;Laerm;40817;51.520;9.954;2023-04-01T04:48:54;44.54;41.53;65.20;;
11999;Laerm;40817;51.520;9.954;2023-04-01T04:51:22;44.33;41.14;68.29;;
11999;Laerm;40817;51.520;9.954;2023-04-01T04:53:50;44.71;42.13;58.39;;
11999;Laerm;40817;51.520;9.954;2023-04-01T04:56:18;44.85;41.53;68.15;;
11999;Laerm;40817;51.520;9.954;2023-04-01T04:58:46;44.32;41.38;57.92;;
11999;Laerm;40817;51.520;9.954;2023-04-01T05:01:16;44.55;41.53;67.42;;
11999;Laerm;40817;51.520;9.954;2023-04-01T05:03:45;47.34;41.53;68.75;;
11999;Laerm;40817;51.520;9.954;2023-04-01T05:06:16;44.09;40.53;66.93;;
11999;Laerm;40817;51.520;9.954;2023-04-01T05:09:03;44.55;40.43;66.27;;
11999;Laerm;40817;51.520;9.954;2023-04-01T05:11:50;43.97;41.22;58.16;;
11999;Laerm;40817;51.520;9.954;2023-04-01T05:14:19;44.00;40.71;59.25;;
11999;Laerm;40817;51.520;9.954;2023-04-01T05:16:47;44.22;40.71;67.75;;
11999;Laerm;40817;51.520;9.954;2023-04-01T05:19:21;44.72;41.82;68.32;;
11999;Laerm;40817;51.520;9.954;2023-04-01T05:21:50;44.25;41.46;68.79;;
11999;Laerm;40817;51.520;9.954;2023-04-01T05:24:22;44.16;40.71;57.11;;
11999;Laerm;40817;51.520;9.954;2023-04-01T05:26:55;46.03;41.22;67.69;;
11999;Laerm;40817;51.520;9.954;2023-04-01T05:29:24;44.58;41.46;58.59;;
11999;Laerm;40817;51.520;9.954;2023-04-01T05:31:53;45.14;40.43;68.41;;
11999;Laerm;40817;51.520;9.954;2023-04-01T05:34:22;44.87;40.36;68.48;;
11999;Laerm;40817;51.520;9.954;2023-04-01T05:36:51;44.54;41.22;57.54;;
11999;Laerm;40817;51.520;9.954;2023-04-01T05:39:19;47.27;41.30;67.88;;
11999;Laerm;40817;51.520;9.954;2023-04-01T05:41:46;45.30;42.03;68.10;;
11999;Laerm;40817;51.520;9.954;2023-04-01T05:44:14;44.28;41.46;58.23;;
11999;Laerm;40817;51.520;9.954;2023-04-01T05:46:42;44.08;41.06;57.55;;
11999;Laerm;40817;51.520;9.954;2023-04-01T05:49:10;44.18;41.14;67.31;;
11999;Laerm;40817;51.520;9.954;2023-04-01T05:51:38;44.44;41.30;68.90;;
11999;Laerm;40817;51.520;9.954;2023-04-01T05:54:07;43.75;39.34;57.56;;
11999;Laerm;40817;51.520;9.954;2023-04-01T05:56:34;44.08;40.98;67.55;;
11999;Laerm;40817;51.520;9.954;2023-04-01T05:59:02;45.00;40.62;57.01;;
11999;Laerm;40817;51.520;9.954;2023-04-01T06:01:30;45.46;41.61;58.90;;
11999;Laerm;40817;51.520;9.954;2023-04-01T06:03:58;44.70;41.68;58.04;;
11999;Laerm;40817;51.520;9.954;2023-04-01T06:06:28;44.06;41.46;56.95;;
11999;Laerm;40817;51.520;9.954;2023-04-01T06:09:04;43.59;40.89;57.99;;
11999;Laerm;40817;51.520;9.954;2023-04-01T06:11:46;44.00;40.62;67.71;;
11999;Laerm;40817;51.520;9.954;2023-04-01T06:14:31;43.86;40.89;56.73;;
11999;Laerm;40817;51.520;9.954;2023-04-01T06:17:26;46.32;40.62;68.02;;
11999;Laerm;40817;51.520;9.954;2023-04-01T06:20:03;44.06;40.98;55.88;;
11999;Laerm;40817;51.520;9.954;2023-04-01T06:23:09;45.99;40.89;60.09;;
11999;Laerm;40817;51.520;9.954;2023-04-01T06:25:59;44.33;41.30;66.54;;
11999;Laerm;40817;51.520;9.954;2023-04-01T06:29:13;46.25;41.38;62.09;;
11999;Laerm;40817;51.520;9.954;2023-04-01T06:32:26;44.90;41.46;58.89;;
11999;Laerm;40817;51.520;9.954;2023-04-01T06:35:17;44.92;41.06;68.44;;
11999;Laerm;40817;51.520;9.954;2023-04-01T06:38:11;45.30;41.30;58.87;;
11999;Laerm;40817;51.520;9.954;2023-04-01T06:41:44;44.20;40.53;59.18;;
11999;Laerm;40817;51.520;9.954;2023-04-01T06:44:30;43.75;40.53;54.75;;
11999;Laerm;40817;51.520;9.954;2023-04-01T06:47:18;45.43;41.46;68.76;;
11999;Laerm;40817;51.520;9.954;2023-04-01T06:49:56;44.60;41.22;68.36;;
11999;Laerm;40817;51.520;9.954;2023-04-01T06:52:36;43.90;41.30;59.41;;
11999;Laerm;40817;51.520;9.954;2023-04-01T06:55:26;43.82;41.14;53.45;;
11999;Laerm;40817;51.520;9.954;2023-04-01T06:57:57;44.52;40.71;57.38;;
11999;Laerm;40817;51.520;9.954;2023-04-01T07:00:33;44.62;40.80;56.25;;
11999;Laerm;40817;51.520;9.954;2023-04-01T07:03:20;44.76;40.98;59.00;;
11999;Laerm;40817;51.520;9.954;2023-04-01T07:05:49;43.96;40.62;49.94;;
11999;Laerm;40817;51.520;9.954;2023-04-01T07:08:22;44.10;39.57;59.04;;
11999;Laerm;40817;51.520;9.954;2023-04-01T07:10:55;47.82;41.06;61.20;;
11999;Laerm;40817;51.520;9.954;2023-04-01T07:13:28;44.23;40.71;56.31;;
11999;Laerm;40817;51.520;9.954;2023-04-01T07:16:13;44.01;41.06;56.78;;
11999;Laerm;40817;51.520;9.954;2023-04-01T07:18:48;46.81;42.09;59.69;;
11999;Laerm;40817;51.520;9.954;2023-04-01T07:21:27;44.92;41.89;60.13;;
11999;Laerm;40817;51.520;9.954;2023-04-01T07:24:04;44.94;41.53;59.32;;
11999;Laerm;40817;51.520;9.954;2023-04-01T07:26:33;45.78;41.22;63.07;;
11999;Laerm;40817;51.520;9.954;2023-04-01T07:29:01;50.12;42.09;76.13;;
11999;Laerm;40817;51.520;9.954;2023-04-01T07:31:54;45.01;41.82;59.53;;
11999;Laerm;40817;51.520;9.954;2023-04-01T07:34:30;45.30;41.06;57.46;;
11999;Laerm;40817;51.520;9.954;2023-04-01T07:37:09;45.00;41.30;70.71;;
11999;Laerm;40817;51.520;9.954;2023-04-01T07:39:48;48.50;41.41;70.57;;
11999;Laerm;40817;51.520;9.954;2023-04-01T07:42:31;44.37;41.53;58.76;;
11999;Laerm;40817;51.520;9.954;2023-04-01T07:45:11;44.58;40.89;57.80;;
11999;Laerm;40817;51.520;9.954;2023-04-01T07:48:06;43.82;39.58;62.95;;
11999;Laerm;40817;51.520;9.954;2023-04-01T07:50:41;47.06;40.98;60.77;;
11999;Laerm;40817;51.520;9.954;2023-04-01T07:53:23;47.67;40.43;62.14;;
11999;Laerm;40817;51.520;9.954;2023-04-01T07:56:00;44.78;41.22;59.30;;
11999;Laerm;40817;51.520;9.954;2023-04-01T07:58:39;45.24;41.61;61.41;;
11999;Laerm;40817;51.520;9.954;2023-04-01T08:01:17;45.87;40.89;64.85;;
11999;Laerm;40817;51.520;9.954;2023-04-01T08:04:18;44.28;40.62;60.54;;
11999;Laerm;40817;51.520;9.954;2023-04-01T08:06:58;44.13;41.38;57.85;;
11999;Laerm;40817;51.520;9.954;2023-04-01T08:09:40;46.78;41.75;63.23;;
11999;Laerm;40817;51.520;9.954;2023-04-01T08:12:26;53.08;40.98;69.18;;
11999;Laerm;40817;51.520;9.954;2023-04-01T08:15:07;57.68;41.53;72.74;;
11999;Laerm;40817;51.520;9.954;2023-04-01T08:17:46;44.30;40.33;58.67;;
11999;Laerm;40817;51.520;9.954;2023-04-01T08:20:29;43.60;39.21;57.39;;
11999;Laerm;40817;51.520;9.954;2023-04-01T08:23:07;45.61;39.34;60.02;;
11999;Laerm;40817;51.520;9.954;2023-04-01T08:25:49;45.33;39.58;58.95;;
11999;Laerm;40817;51.520;9.954;2023-04-01T08:28:25;46.23;40.53;67.78;;
11999;Laerm;40817;51.520;9.954;2023-04-01T08:31:00;44.43;41.06;58.35;;
11999;Laerm;40817;51.520;9.954;2023-04-01T08:33:40;50.96;41.14;68.15;;
11999;Laerm;40817;51.520;9.954;2023-04-01T08:36:15;46.71;40.53;64.05;;
11999;Laerm;40817;51.520;9.954;2023-04-01T08:38:49;44.50;40.98;58.50;;
11999;Laerm;40817;51.520;9.954;2023-04-01T08:42:04;46.20;41.61;60.75;;
11999;Laerm;40817;51.520;9.954;2023-04-01T08:45:23;47.51;40.71;72.14;;
11999;Laerm;40817;51.520;9.954;2023-04-01T08:49:01;45.23;40.71;64.66;;
11999;Laerm;40817;51.520;9.954;2023-04-01T08:55:31;49.95;44.94;64.67;;
11999;Laerm;40817;51.520;9.954;2023-04-01T08:59:04;48.68;45.20;58.05;;
11999;Laerm;40817;51.520;9.954;2023-04-01T09:01:58;48.55;42.03;58.25;;
11999;Laerm;40817;51.520;9.954;2023-04-01T09:05:02;46.62;41.30;66.25;;
11999;Laerm;40817;51.520;9.954;2023-04-01T09:07:43;47.03;41.30;69.31;;
11999;Laerm;40817;51.520;9.954;2023-04-01T09:10:33;47.34;41.22;69.97;;
11999;Laerm;40817;51.520;9.954;2023-04-01T09:20:39;45.65;40.03;68.33;;
11999;Laerm;40817;51.520;9.954;2023-04-01T09:24:05;44.04;39.92;67.16;;
11999;Laerm;40817;51.520;9.954;2023-04-01T09:26:58;44.41;40.80;67.45;;
11999;Laerm;40817;51.520;9.954;2023-04-01T09:29:55;44.17;40.89;66.34;;
11999;Laerm;40817;51.520;9.954;2023-04-01T09:35:43;45.23;39.21;66.74;;
11999;Laerm;40817;51.520;9.954;2023-04-01T09:38:22;43.59;39.81;66.61;;
11999;Laerm;40817;51.520;9.954;2023-04-01T09:40:58;43.85;40.71;67.56;;
11999;Laerm;40817;51.520;9.954;2023-04-01T09:43:53;44.10;40.33;66.56;;
11999;Laerm;40817;51.520;9.954;2023-04-01T09:49:59;43.67;39.08;67.39;;
11999;Laerm;40817;51.520;9.954;2023-04-01T09:52:42;43.40;40.23;56.80;;
11999;Laerm;40817;51.520;9.954;2023-04-01T09:55:41;45.69;40.89;66.84;;
11999;Laerm;40817;51.520;9.954;2023-04-01T09:59:21;47.82;40.43;74.22;;
11999;Laerm;40817;51.520;9.954;2023-04-01T10:03:02;56.96;41.06;72.18;;
11999;Laerm;40817;51.520;9.954;2023-04-01T10:06:47;45.62;39.58;61.06;;
11999;Laerm;40817;51.520;9.954;2023-04-01T10:13:49;48.18;39.58;75.01;;
11999;Laerm;40817;51.520;9.954;2023-04-01T10:23:22;46.30;39.46;67.15;;
11999;Laerm;40817;51.520;9.954;2023-04-01T10:26:41;49.88;38.95;67.74;;
11999;Laerm;40817;51.520;9.954;2023-04-01T10:29:57;45.55;40.03;61.94;;
11999;Laerm;40817;51.520;9.954;2023-04-01T10:36:52;43.67;39.46;68.03;;
11999;Laerm;40817;51.520;9.954;2023-04-01T10:43:54;42.67;38.67;56.16;;
11999;Laerm;40817;51.520;9.954;2023-04-01T10:50:31;43.08;38.81;54.82;;
11999;Laerm;40817;51.520;9.954;2023-04-01T10:56:40;43.63;40.13;52.13;;
11999;Laerm;40817;51.520;9.954;2023-04-01T11:00:32;52.09;39.70;73.52;;
11999;Laerm;40817;51.520;9.954;2023-04-01T11:04:09;43.77;39.46;58.51;;
11999;Laerm;40817;51.520;9.954;2023-04-01T11:07:36;43.74;38.52;65.99;;
11999;Laerm;40817;51.520;9.954;2023-04-01T11:15:01;47.21;38.67;75.02;;
11999;Laerm;40817;51.520;9.954;2023-04-01T11:22:08;42.80;39.34;57.93;;
11999;Laerm;40817;51.520;9.954;2023-04-01T11:25:11;44.06;38.95;52.47;;
11999;Laerm;40817;51.520;9.954;2023-04-01T11:28:16;51.09;38.81;68.94;;
11999;Laerm;40817;51.520;9.954;2023-04-01T11:31:09;48.56;38.95;67.55;;
11999;Laerm;40817;51.520;9.954;2023-04-01T11:33:47;48.10;44.51;64.48;;
11999;Laerm;40817;51.520;9.954;2023-04-01T11:36:35;48.62;44.54;56.32;;
11999;Laerm;40817;51.520;9.954;2023-04-01T11:39:20;47.53;38.67;57.88;;
11999;Laerm;40817;51.520;9.954;2023-04-01T11:42:04;46.23;38.52;72.14;;
11999;Laerm;40817;51.520;9.954;2023-04-01T11:44:43;43.12;38.81;58.21;;
11999;Laerm;40817;51.520;9.954;2023-04-01T11:47:46;41.85;38.05;52.13;;
11999;Laerm;40817;51.520;9.954;2023-04-01T11:50:26;42.11;37.70;59.76;;
11999;Laerm;40817;51.520;9.954;2023-04-01T11:53:15;42.81;38.95;59.48;;
11999;Laerm;40817;51.520;9.954;2023-04-01T11:56:09;42.01;38.67;53.54;;
11999;Laerm;40817;51.520;9.954;2023-04-01T11:59:14;42.25;37.17;56.08;;
11999;Laerm;40817;51.520;9.954;2023-04-01T12:02:00;42.89;39.21;58.80;;
11999;Laerm;40817;51.520;9.954;2023-04-01T12:04:51;49.73;40.98;65.69;;
11999;Laerm;40817;51.520;9.954;2023-04-01T12:07:52;43.18;39.81;56.30;;
11999;Laerm;40817;51.520;9.954;2023-04-01T12:10:26;44.33;40.13;57.54;;
11999;Laerm;40817;51.520;9.954;2023-04-01T12:13:07;45.03;41.22;58.64;;
11999;Laerm;40817;51.520;9.954;2023-04-01T12:16:00;42.75;39.11;60.98;;
11999;Laerm;40817;51.520;9.954;2023-04-01T12:18:38;44.95;40.71;61.70;;
11999;Laerm;40817;51.520;9.954;2023-04-01T12:21:23;44.58;41.22;60.58;;
11999;Laerm;40817;51.520;9.954;2023-04-01T12:24:29;44.55;41.53;55.55;;
11999;Laerm;40817;51.520;9.954;2023-04-01T12:30:55;44.19;40.89;62.42;;
11999;Laerm;40817;51.520;9.954;2023-04-01T12:34:09;45.90;40.62;62.76;;
11999;Laerm;40817;51.520;9.954;2023-04-01T12:36:52;43.53;40.62;54.65;;
11999;Laerm;40817;51.520;9.954;2023-04-01T12:39:51;42.63;38.81;54.03;;
11999;Laerm;40817;51.520;9.954;2023-04-01T12:43:01;42.13;38.05;59.18;;
11999;Laerm;40817;51.520;9.954;2023-04-01T12:45:35;43.00;37.70;64.28;;
11999;Laerm;40817;51.520;9.954;2023-04-01T12:49:01;43.07;37.88;55.72;;
11999;Laerm;40817;51.520;9.954;2023-04-01T12:51:56;42.73;37.88;58.31;;
11999;Laerm;40817;51.520;9.954;2023-04-01T12:55:30;43.72;37.70;64.03;;
11999;Laerm;40817;51.520;9.954;2023-04-01T12:58:38;42.64;37.70;56.35;;
11999;Laerm;40817;51.520;9.954;2023-04-01T13:05:03;42.08;37.88;55.45;;
11999;Laerm;40817;51.520;9.954;2023-04-01T13:08:11;42.39;38.52;57.10;;
11999;Laerm;40817;51.520;9.954;2023-04-01T13:11:08;45.91;39.08;66.55;;
11999;Laerm;40817;51.520;9.954;2023-04-01T13:14:32;52.59;41.46;71.36;;
11999;Laerm;40817;51.520;9.954;2023-04-01T13:17:14;51.65;42.53;73.52;;
11999;Laerm;40817;51.520;9.954;2023-04-01T13:19:50;56.56;43.54;74.74;;
11999;Laerm;40817;51.520;9.954;2023-04-01T13:22:28;61.82;43.29;78.06;;
11999;Laerm;40817;51.520;9.954;2023-04-01T13:25:04;63.99;53.94;78.40;;
11999;Laerm;40817;51.520;9.954;2023-04-01T13:27:37;59.95;48.28;76.74;;
11999;Laerm;40817;51.520;9.954;2023-04-01T13:30:26;57.32;46.15;74.50;;
11999;Laerm;40817;51.520;9.954;2023-04-01T13:33:10;57.13;45.59;78.42;;
11999;Laerm;40817;51.520;9.954;2023-04-01T13:35:50;57.72;46.80;78.70;;
11999;Laerm;40817;51.520;9.954;2023-04-01T13:42:00;58.08;42.22;77.82;;
11999;Laerm;40817;51.520;9.954;2023-04-01T13:44:37;56.57;41.06;77.84;;
11999;Laerm;40817;51.520;9.954;2023-04-01T13:47:56;49.02;40.43;69.60;;
11999;Laerm;40817;51.520;9.954;2023-04-01T13:54:22;63.08;39.46;81.63;;
11999;Laerm;40817;51.520;9.954;2023-04-01T13:57:16;57.92;38.95;79.44;;
11999;Laerm;40817;51.520;9.954;2023-04-01T14:00:22;51.64;39.92;80.49;;
11999;Laerm;40817;51.520;9.954;2023-04-01T14:03:49;45.10;39.46;70.51;;
11999;Laerm;40817;51.520;9.954;2023-04-01T14:06:30;44.44;38.81;70.11;;
11999;Laerm;40817;51.520;9.954;2023-04-01T14:09:24;42.34;38.21;68.15;;
11999;Laerm;40817;51.520;9.954;2023-04-01T14:12:02;47.88;37.88;74.65;;
11999;Laerm;40817;51.520;9.954;2023-04-01T14:14:50;42.60;37.52;69.08;;
11999;Laerm;40817;51.520;9.954;2023-04-01T14:17:46;43.65;37.88;68.54;;
11999;Laerm;40817;51.520;9.954;2023-04-01T14:20:38;43.71;39.46;68.45;;
11999;Laerm;40817;51.520;9.954;2023-04-01T14:23:42;43.88;38.21;67.95;;
11999;Laerm;40817;51.520;9.954;2023-04-01T14:26:55;44.38;40.13;68.70;;
11999;Laerm;40817;51.520;9.954;2023-04-01T14:29:30;47.33;38.05;67.76;;
11999;Laerm;40817;51.520;9.954;2023-04-01T14:32:11;46.22;39.08;69.11;;
11999;Laerm;40817;51.520;9.954;2023-04-01T14:35:11;43.79;37.88;67.70;;
11999;Laerm;40817;51.520;9.954;2023-04-01T14:41:20;45.86;37.32;59.67;;
11999;Laerm;40817;51.520;9.954;2023-04-01T14:47:23;43.11;38.21;57.47;;
11999;Laerm;40817;51.520;9.954;2023-04-01T14:50:03;47.82;38.05;61.94;;
11999;Laerm;40817;51.520;9.954;2023-04-01T14:52:38;53.87;38.37;70.43;;
11999;Laerm;40817;51.520;9.954;2023-04-01T14:55:33;42.52;38.67;53.69;;
11999;Laerm;40817;51.520;9.954;2023-04-01T14:58:15;43.76;39.70;58.17;;
11999;Laerm;40817;51.520;9.954;2023-04-01T15:01:10;46.42;40.53;56.97;;
11999;Laerm;40817;51.520;9.954;2023-04-01T15:03:48;43.41;39.46;57.72;;
11999;Laerm;40817;51.520;9.954;2023-04-01T15:06:49;45.23;40.62;59.88;;
11999;Laerm;40817;51.520;9.954;2023-04-01T15:09:32;45.05;40.43;67.20;;
11999;Laerm;40817;51.520;9.954;2023-04-01T15:12:20;50.88;40.79;64.16;;
11999;Laerm;40817;51.520;9.954;2023-04-01T15:15:23;44.57;40.33;64.02;;
11999;Laerm;40817;51.520;9.954;2023-04-01T15:18:08;44.91;41.22;57.81;;
11999;Laerm;40817;51.520;9.954;2023-04-01T15:21:05;46.70;40.89;57.61;;
11999;Laerm;40817;51.520;9.954;2023-04-01T15:23:51;45.38;40.62;68.39;;
11999;Laerm;40817;51.520;9.954;2023-04-01T15:26:42;44.88;39.46;63.35;;
11999;Laerm;40817;51.520;9.954;2023-04-01T15:32:25;43.17;38.37;55.00;;
11999;Laerm;40817;51.520;9.954;2023-04-01T15:35:02;43.88;40.33;54.26;;
11999;Laerm;40817;51.520;9.954;2023-04-01T15:37:45;43.37;38.37;58.28;;
11999;Laerm;40817;51.520;9.954;2023-04-01T15:40:26;44.37;38.37;58.66;;
11999;Laerm;40817;51.520;9.954;2023-04-01T15:43:13;47.67;39.21;66.00;;
11999;Laerm;40817;51.520;9.954;2023-04-01T15:45:58;44.75;39.92;67.79;;
11999;Laerm;40817;51.520;9.954;2023-04-01T15:48:57;42.65;37.70;58.48;;
11999;Laerm;40817;51.520;9.954;2023-04-01T15:52:02;44.35;38.37;60.85;;
11999;Laerm;40817;51.520;9.954;2023-04-01T15:55:16;43.59;38.67;67.61;;
11999;Laerm;40817;51.520;9.954;2023-04-01T15:58:05;44.17;38.95;67.97;;
11999;Laerm;40817;51.520;9.954;2023-04-01T16:00:47;50.37;38.95;67.57;;
11999;Laerm;40817;51.520;9.954;2023-04-01T16:03:37;55.26;47.10;67.72;;
11999;Laerm;40817;51.520;9.954;2023-04-01T16:06:52;53.13;39.46;67.61;;
11999;Laerm;40817;51.520;9.954;2023-04-01T16:12:41;44.51;38.52;67.53;;
11999;Laerm;40817;51.520;9.954;2023-04-01T16:15:26;44.93;39.58;67.91;;
11999;Laerm;40817;51.520;9.954;2023-04-01T16:18:37;44.75;38.67;67.62;;
11999;Laerm;40817;51.520;9.954;2023-04-01T16:21:14;46.12;38.52;69.42;;
11999;Laerm;40817;51.520;9.954;2023-04-01T16:23:55;49.63;39.46;68.16;;
11999;Laerm;40817;51.520;9.954;2023-04-01T16:26:29;46.92;39.70;69.05;;
11999;Laerm;40817;51.520;9.954;2023-04-01T16:29:09;47.50;39.92;71.03;;
11999;Laerm;40817;51.520;9.954;2023-04-01T16:31:44;48.16;40.03;71.96;;